sensor_id;sensor_type;location;lat;lon;timestamp;P1;durP1;ratioP1;P2;durP2;ratioP2
9324;SDS011;4701;51.566;6.776;2022-12-18T06:01:05;43.33;;;20.57;;
9324;SDS011;4701;51.566;6.776;2022-12-18T06:03:08;38.23;;;19.37;;
9324;SDS011;4701;51.566;6.776;2022-12-18T06:05:11;42.00;;;21.67;;
9324;SDS011;4701;51.566;6.776;2022-12-18T06:07:14;38.83;;;20.87;;
9324;SDS011;4701;51.566;6.776;2022-12-18T06:09:16;37.80;;;20.97;;
9324;SDS011;4701;51.566;6.776;2022-12-18T06:11:18;42.40;;;21.33;;
9324;SDS011;4701;51.566;6.776;2022-12-18T06:13:22;37.17;;;21.07;;
9324;SDS011;4701;51.566;6.776;2022-12-18T06:15:24;36.07;;;20.90;;
9324;SDS011;4701;51.566;6.776;2022-12-18T06:17:28;40.73;;;21.50;;
9324;SDS011;4701;51.566;6.776;2022-12-18T06:19:30;40.33;;;20.73;;
9324;SDS011;4701;51.566;6.776;2022-12-18T06:21:32;33.43;;;19.20;;
9324;SDS011;4701;51.566;6.776;2022-12-18T06:23:34;42.10;;;21.23;;
9324;SDS011;4701;51.566;6.776;2022-12-18T06:25:37;44.70;;;22.07;;
9324;SDS011;4701;51.566;6.776;2022-12-18T06:27:40;40.03;;;21.97;;
9324;SDS011;4701;51.566;6.776;2022-12-18T06:29:42;39.77;;;20.90;;
9324;SDS011;4701;51.566;6.776;2022-12-18T06:31:44;42.13;;;21.10;;
9324;SDS011;4701;51.566;6.776;2022-12-18T06:33:47;39.50;;;20.30;;
9324;SDS011;4701;51.566;6.776;2022-12-18T06:35:48;35.30;;;19.60;;
9324;SDS011;4701;51.566;6.776;2022-12-18T06:37:50;39.93;;;22.03;;
9324;SDS011;4701;51.566;6.776;2022-12-18T06:39:52;38.97;;;20.57;;
9324;SDS011;4701;51.566;6.776;2022-12-18T06:41:54;38.00;;;21.40;;
9324;SDS011;4701;51.566;6.776;2022-12-18T06:43:57;42.20;;;20.87;;
9324;SDS011;4701;51.566;6.776;2022-12-18T06:45:59;40.20;;;20.67;;
9324;SDS011;4701;51.566;6.776;2022-12-18T06:48:00;43.40;;;21.87;;
9324;SDS011;4701;51.566;6.776;2022-12-18T06:50:04;44.07;;;20.67;;
9324;SDS011;4701;51.566;6.776;2022-12-18T06:52:06;44.67;;;22.07;;
9324;SDS011;4701;51.566;6.776;2022-12-18T06:54:08;40.43;;;20.17;;
9324;SDS011;4701;51.566;6.776;2022-12-18T06:56:13;37.33;;;20.53;;
9324;SDS011;4701;51.566;6.776;2022-12-18T06:58:15;36.57;;;20.90;;
9324;SDS011;4701;51.566;6.776;2022-12-18T07:00:17;36.53;;;19.73;;
9324;SDS011;4701;51.566;6.776;2022-12-18T07:02:19;38.03;;;19.87;;
9324;SDS011;4701;51.566;6.776;2022-12-18T07:04:21;35.80;;;20.63;;
9324;SDS011;4701;51.566;6.776;2022-12-18T07:06:25;38.33;;;18.60;;
9324;SDS011;4701;51.566;6.776;2022-12-18T07:08:28;33.57;;;18.53;;
9324;SDS011;4701;51.566;6.776;2022-12-18T07:10:30;37.00;;;19.17;;
9324;SDS011;4701;51.566;6.776;2022-12-18T07:12:32;57.57;;;30.23;;
9324;SDS011;4701;51.566;6.776;2022-12-18T07:14:33;46.53;;;23.67;;
9324;SDS011;4701;51.566;6.776;2022-12-18T07:16:35;39.20;;;19.87;;
9324;SDS011;4701;51.566;6.776;2022-12-18T07:18:37;45.30;;;21.97;;
9324;SDS011;4701;51.566;6.776;2022-12-18T07:20:39;35.67;;;20.47;;
9324;SDS011;4701;51.566;6.776;2022-12-18T07:22:45;36.57;;;18.60;;
9324;SDS011;4701;51.566;6.776;2022-12-18T07:24:49;35.93;;;18.30;;
9324;SDS011;4701;51.566;6.776;2022-12-18T07:26:54;34.43;;;19.17;;
9324;SDS011;4701;51.566;6.776;2022-12-18T07:28:59;40.43;;;18.40;;
9324;SDS011;4701;51.566;6.776;2022-12-18T07:31:06;40.83;;;19.13;;
9324;SDS011;4701;51.566;6.776;2022-12-18T07:33:10;36.83;;;19.03;;
9324;SDS011;4701;51.566;6.776;2022-12-18T07:35:17;48.03;;;18.03;;
9324;SDS011;4701;51.566;6.776;2022-12-18T07:37:22;32.07;;;17.27;;
9324;SDS011;4701;51.566;6.776;2022-12-18T07:39:31;31.50;;;17.07;;
9324;SDS011;4701;51.566;6.776;2022-12-18T07:41:37;31.43;;;17.30;;
9324;SDS011;4701;51.566;6.776;2022-12-18T07:43:46;39.40;;;19.23;;
9324;SDS011;4701;51.566;6.776;2022-12-18T07:45:54;42.67;;;19.83;;
9324;SDS011;4701;51.566;6.776;2022-12-18T07:48:06;34.57;;;18.20;;
9324;SDS011;4701;51.566;6.776;2022-12-18T07:50:08;35.40;;;19.03;;
9324;SDS011;4701;51.566;6.776;2022-12-18T07:52:10;36.17;;;19.40;;
9324;SDS011;4701;51.566;6.776;2022-12-18T07:54:12;29.57;;;17.27;;
9324;SDS011;4701;51.566;6.776;2022-12-18T07:56:16;40.50;;;20.10;;
9324;SDS011;4701;51.566;6.776;2022-12-18T07:58:18;32.17;;;18.43;;
9324;SDS011;4701;51.566;6.776;2022-12-18T08:00:20;34.63;;;17.87;;
9324;SDS011;4701;51.566;6.776;2022-12-18T08:02:21;38.87;;;19.70;;
9324;SDS011;4701;51.566;6.776;2022-12-18T08:04:23;37.77;;;19.60;;
9324;SDS011;4701;51.566;6.776;2022-12-18T08:06:25;35.27;;;18.40;;
9324;SDS011;4701;51.566;6.776;2022-12-18T08:08:27;35.40;;;19.63;;
9324;SDS011;4701;51.566;6.776;2022-12-18T08:10:30;32.70;;;17.93;;
9324;SDS011;4701;51.566;6.776;2022-12-18T08:12:33;36.40;;;18.93;;
9324;SDS011;4701;51.566;6.776;2022-12-18T08:14:35;33.23;;;18.53;;
9324;SDS011;4701;51.566;6.776;2022-12-18T08:16:36;39.60;;;18.73;;
9324;SDS011;4701;51.566;6.776;2022-12-18T08:18:38;29.47;;;18.70;;
9324;SDS011;4701;51.566;6.776;2022-12-18T08:20:40;37.50;;;18.00;;
9324;SDS011;4701;51.566;6.776;2022-12-18T08:22:45;33.13;;;17.47;;
9324;SDS011;4701;51.566;6.776;2022-12-18T08:24:47;35.43;;;17.13;;
9324;SDS011;4701;51.566;6.776;2022-12-18T08:26:49;30.77;;;17.70;;
9324;SDS011;4701;51.566;6.776;2022-12-18T08:28:55;41.70;;;19.70;;
9324;SDS011;4701;51.566;6.776;2022-12-18T08:30:57;36.50;;;19.73;;
9324;SDS011;4701;51.566;6.776;2022-12-18T08:32:59;33.10;;;18.77;;
9324;SDS011;4701;51.566;6.776;2022-12-18T08:35:01;33.43;;;18.13;;
9324;SDS011;4701;51.566;6.776;2022-12-18T08:37:03;31.07;;;18.80;;
9324;SDS011;4701;51.566;6.776;2022-12-18T08:39:04;29.53;;;17.40;;
9324;SDS011;4701;51.566;6.776;2022-12-18T08:41:07;32.30;;;18.17;;
9324;SDS011;4701;51.566;6.776;2022-12-18T08:43:11;31.77;;;18.30;;
9324;SDS011;4701;51.566;6.776;2022-12-18T08:45:30;34.47;;;18.97;;
9324;SDS011;4701;51.566;6.776;2022-12-18T08:47:35;34.17;;;17.50;;
9324;SDS011;4701;51.566;6.776;2022-12-18T08:49:37;35.87;;;18.80;;
9324;SDS011;4701;51.566;6.776;2022-12-18T08:51:39;33.67;;;20.23;;
9324;SDS011;4701;51.566;6.776;2022-12-18T08:53:41;31.90;;;17.57;;
9324;SDS011;4701;51.566;6.776;2022-12-18T08:55:43;44.73;;;18.60;;
9324;SDS011;4701;51.566;6.776;2022-12-18T08:57:47;34.33;;;19.33;;
9324;SDS011;4701;51.566;6.776;2022-12-18T08:59:49;32.77;;;18.63;;
9324;SDS011;4701;51.566;6.776;2022-12-18T09:01:52;34.90;;;17.90;;
9324;SDS011;4701;51.566;6.776;2022-12-18T09:03:55;30.20;;;17.17;;
9324;SDS011;4701;51.566;6.776;2022-12-18T09:05:57;35.97;;;18.50;;
9324;SDS011;4701;51.566;6.776;2022-12-18T09:07:59;35.40;;;19.23;;
9324;SDS011;4701;51.566;6.776;2022-12-18T09:10:01;32.07;;;18.47;;
9324;SDS011;4701;51.566;6.776;2022-12-18T09:12:03;38.43;;;20.30;;
9324;SDS011;4701;51.566;6.776;2022-12-18T09:14:06;41.73;;;23.27;;
9324;SDS011;4701;51.566;6.776;2022-12-18T09:16:07;56.60;;;31.27;;
9324;SDS011;4701;51.566;6.776;2022-12-18T09:18:11;37.30;;;21.00;;
9324;SDS011;4701;51.566;6.776;2022-12-18T09:20:14;33.10;;;18.77;;
9324;SDS011;4701;51.566;6.776;2022-12-18T09:22:16;32.03;;;19.40;;
9324;SDS011;4701;51.566;6.776;2022-12-18T09:24:18;30.57;;;18.10;;
9324;SDS011;4701;51.566;6.776;2022-12-18T09:26:23;33.50;;;18.53;;
9324;SDS011;4701;51.566;6.776;2022-12-18T09:28:26;31.57;;;18.33;;
9324;SDS011;4701;51.566;6.776;2022-12-18T09:30:27;47.60;;;26.07;;
9324;SDS011;4701;51.566;6.776;2022-12-18T09:32:29;40.87;;;23.20;;
9324;SDS011;4701;51.566;6.776;2022-12-18T09:34:32;39.53;;;21.10;;
9324;SDS011;4701;51.566;6.776;2022-12-18T09:36:34;29.13;;;17.27;;
9324;SDS011;4701;51.566;6.776;2022-12-18T09:38:36;32.70;;;18.27;;
9324;SDS011;4701;51.566;6.776;2022-12-18T09:40:43;26.57;;;18.00;;
9324;SDS011;4701;51.566;6.776;2022-12-18T09:42:48;30.53;;;17.67;;
9324;SDS011;4701;51.566;6.776;2022-12-18T09:44:59;30.57;;;17.73;;
9324;SDS011;4701;51.566;6.776;2022-12-18T09:47:03;29.43;;;17.23;;
9324;SDS011;4701;51.566;6.776;2022-12-18T09:49:11;28.40;;;18.37;;
9324;SDS011;4701;51.566;6.776;2022-12-18T09:51:19;30.47;;;17.40;;
9324;SDS011;4701;51.566;6.776;2022-12-18T09:53:28;28.87;;;17.30;;
9324;SDS011;4701;51.566;6.776;2022-12-18T09:55:34;37.50;;;18.60;;
9324;SDS011;4701;51.566;6.776;2022-12-18T09:57:39;33.40;;;18.43;;
9324;SDS011;4701;51.566;6.776;2022-12-18T09:59:47;29.43;;;18.40;;
9324;SDS011;4701;51.566;6.776;2022-12-18T10:01:53;30.70;;;18.23;;
9324;SDS011;4701;51.566;6.776;2022-12-18T10:03:55;25.87;;;16.53;;
9324;SDS011;4701;51.566;6.776;2022-12-18T10:05:59;32.37;;;18.70;;
9324;SDS011;4701;51.566;6.776;2022-12-18T10:08:08;25.73;;;16.37;;
9324;SDS011;4701;51.566;6.776;2022-12-18T10:10:28;25.50;;;16.23;;
9324;SDS011;4701;51.566;6.776;2022-12-18T10:12:38;27.70;;;15.70;;
9324;SDS011;4701;51.566;6.776;2022-12-18T10:14:46;24.30;;;15.73;;
9324;SDS011;4701;51.566;6.776;2022-12-18T10:16:57;27.43;;;17.07;;
9324;SDS011;4701;51.566;6.776;2022-12-18T10:19:21;28.00;;;16.97;;
9324;SDS011;4701;51.566;6.776;2022-12-18T10:21:32;28.37;;;17.37;;
9324;SDS011;4701;51.566;6.776;2022-12-18T10:23:43;23.43;;;15.57;;
9324;SDS011;4701;51.566;6.776;2022-12-18T10:25:58;28.93;;;17.17;;
9324;SDS011;4701;51.566;6.776;2022-12-18T10:28:07;29.03;;;18.23;;
9324;SDS011;4701;51.566;6.776;2022-12-18T10:30:13;24.67;;;16.27;;
9324;SDS011;4701;51.566;6.776;2022-12-18T10:32:17;28.17;;;17.07;;
9324;SDS011;4701;51.566;6.776;2022-12-18T10:34:20;27.73;;;16.83;;
9324;SDS011;4701;51.566;6.776;2022-12-18T10:36:23;27.77;;;17.47;;
9324;SDS011;4701;51.566;6.776;2022-12-18T10:38:26;26.20;;;16.43;;
9324;SDS011;4701;51.566;6.776;2022-12-18T10:40:30;29.07;;;17.83;;
9324;SDS011;4701;51.566;6.776;2022-12-18T10:42:32;29.43;;;18.63;;
9324;SDS011;4701;51.566;6.776;2022-12-18T10:44:34;28.50;;;17.57;;
9324;SDS011;4701;51.566;6.776;2022-12-18T10:46:38;25.27;;;17.70;;
9324;SDS011;4701;51.566;6.776;2022-12-18T10:48:41;27.07;;;17.63;;
9324;SDS011;4701;51.566;6.776;2022-12-18T10:50:51;28.93;;;18.70;;
9324;SDS011;4701;51.566;6.776;2022-12-18T10:52:57;45.30;;;29.53;;
9324;SDS011;4701;51.566;6.776;2022-12-18T10:55:01;33.63;;;20.13;;
9324;SDS011;4701;51.566;6.776;2022-12-18T10:57:16;55.47;;;32.97;;
9324;SDS011;4701;51.566;6.776;2022-12-18T10:59:30;36.93;;;24.03;;
9324;SDS011;4701;51.566;6.776;2022-12-18T11:01:52;28.60;;;17.40;;
9324;SDS011;4701;51.566;6.776;2022-12-18T11:04:00;25.70;;;17.07;;
9324;SDS011;4701;51.566;6.776;2022-12-18T11:06:05;26.50;;;16.57;;
9324;SDS011;4701;51.566;6.776;2022-12-18T11:08:11;24.97;;;17.40;;
9324;SDS011;4701;51.566;6.776;2022-12-18T11:10:23;28.53;;;17.03;;
9324;SDS011;4701;51.566;6.776;2022-12-18T11:12:30;27.83;;;16.20;;
9324;SDS011;4701;51.566;6.776;2022-12-18T11:14:33;29.37;;;17.73;;
9324;SDS011;4701;51.566;6.776;2022-12-18T11:16:46;23.57;;;15.97;;
9324;SDS011;4701;51.566;6.776;2022-12-18T11:18:49;25.33;;;17.07;;
9324;SDS011;4701;51.566;6.776;2022-12-18T11:20:52;26.10;;;17.27;;
9324;SDS011;4701;51.566;6.776;2022-12-18T11:22:58;22.53;;;15.80;;
9324;SDS011;4701;51.566;6.776;2022-12-18T11:25:02;25.00;;;16.67;;
9324;SDS011;4701;51.566;6.776;2022-12-18T11:27:15;24.33;;;16.73;;
9324;SDS011;4701;51.566;6.776;2022-12-18T11:29:24;27.83;;;17.27;;
9324;SDS011;4701;51.566;6.776;2022-12-18T11:31:32;25.83;;;17.37;;
9324;SDS011;4701;51.566;6.776;2022-12-18T11:33:34;24.33;;;17.67;;
9324;SDS011;4701;51.566;6.776;2022-12-18T11:35:40;25.50;;;16.97;;
9324;SDS011;4701;51.566;6.776;2022-12-18T11:37:46;27.23;;;16.93;;
9324;SDS011;4701;51.566;6.776;2022-12-18T11:39:54;27.57;;;17.57;;
9324;SDS011;4701;51.566;6.776;2022-12-18T11:42:02;24.17;;;16.80;;
9324;SDS011;4701;51.566;6.776;2022-12-18T11:44:11;28.57;;;18.17;;
9324;SDS011;4701;51.566;6.776;2022-12-18T11:46:18;28.03;;;17.23;;
9324;SDS011;4701;51.566;6.776;2022-12-18T11:48:27;30.73;;;19.20;;
9324;SDS011;4701;51.566;6.776;2022-12-18T11:50:33;30.57;;;18.33;;
9324;SDS011;4701;51.566;6.776;2022-12-18T11:52:47;26.30;;;18.13;;
9324;SDS011;4701;51.566;6.776;2022-12-18T11:54:51;25.10;;;17.00;;
9324;SDS011;4701;51.566;6.776;2022-12-18T11:56:55;25.63;;;17.73;;
9324;SDS011;4701;51.566;6.776;2022-12-18T11:59:02;28.40;;;18.03;;
9324;SDS011;4701;51.566;6.776;2022-12-18T12:01:13;32.27;;;18.97;;
9324;SDS011;4701;51.566;6.776;2022-12-18T12:03:35;23.73;;;16.40;;
9324;SDS011;4701;51.566;6.776;2022-12-18T12:05:47;26.57;;;17.70;;
9324;SDS011;4701;51.566;6.776;2022-12-18T12:08:00;26.77;;;16.90;;
9324;SDS011;4701;51.566;6.776;2022-12-18T12:10:12;26.93;;;18.00;;
9324;SDS011;4701;51.566;6.776;2022-12-18T12:12:26;25.53;;;17.33;;
9324;SDS011;4701;51.566;6.776;2022-12-18T12:14:47;25.10;;;17.00;;
9324;SDS011;4701;51.566;6.776;2022-12-18T12:16:57;25.40;;;18.33;;
9324;SDS011;4701;51.566;6.776;2022-12-18T12:19:10;27.73;;;17.53;;
9324;SDS011;4701;51.566;6.776;2022-12-18T12:21:25;27.93;;;18.20;;
9324;SDS011;4701;51.566;6.776;2022-12-18T12:23:38;27.00;;;17.87;;
9324;SDS011;4701;51.566;6.776;2022-12-18T12:25:46;25.17;;;17.00;;
9324;SDS011;4701;51.566;6.776;2022-12-18T12:27:52;27.77;;;17.73;;
9324;SDS011;4701;51.566;6.776;2022-12-18T12:30:04;26.17;;;17.30;;
9324;SDS011;4701;51.566;6.776;2022-12-18T12:32:25;24.97;;;17.13;;
9324;SDS011;4701;51.566;6.776;2022-12-18T12:34:43;26.63;;;17.77;;
9324;SDS011;4701;51.566;6.776;2022-12-18T12:36:59;25.70;;;17.33;;
9324;SDS011;4701;51.566;6.776;2022-12-18T12:39:11;28.97;;;18.50;;
9324;SDS011;4701;51.566;6.776;2022-12-18T12:41:17;26.43;;;16.40;;
9324;SDS011;4701;51.566;6.776;2022-12-18T12:43:41;24.77;;;16.33;;
9324;SDS011;4701;51.566;6.776;2022-12-18T12:45:47;21.27;;;15.47;;
9324;SDS011;4701;51.566;6.776;2022-12-18T12:47:53;18.67;;;13.43;;
9324;SDS011;4701;51.566;6.776;2022-12-18T12:49:59;19.47;;;12.27;;
9324;SDS011;4701;51.566;6.776;2022-12-18T12:52:04;18.30;;;12.73;;
9324;SDS011;4701;51.566;6.776;2022-12-18T12:54:11;15.57;;;10.30;;
9324;SDS011;4701;51.566;6.776;2022-12-18T12:56:18;15.53;;;9.73;;
9324;SDS011;4701;51.566;6.776;2022-12-18T12:58:24;13.97;;;9.20;;
9324;SDS011;4701;51.566;6.776;2022-12-18T13:00:35;13.77;;;10.03;;
9324;SDS011;4701;51.566;6.776;2022-12-18T13:02:44;13.27;;;8.77;;
9324;SDS011;4701;51.566;6.776;2022-12-18T13:04:56;16.97;;;10.23;;
9324;SDS011;4701;51.566;6.776;2022-12-18T13:07:04;14.37;;;9.03;;
9324;SDS011;4701;51.566;6.776;2022-12-18T13:09:12;11.30;;;8.00;;
9324;SDS011;4701;51.566;6.776;2022-12-18T13:11:15;14.97;;;8.77;;
9324;SDS011;4701;51.566;6.776;2022-12-18T13:13:49;12.37;;;7.87;;
9324;SDS011;4701;51.566;6.776;2022-12-18T13:16:03;10.13;;;7.23;;
9324;SDS011;4701;51.566;6.776;2022-12-18T13:18:14;13.77;;;7.77;;
9324;SDS011;4701;51.566;6.776;2022-12-18T13:20:20;11.83;;;7.33;;
9324;SDS011;4701;51.566;6.776;2022-12-18T13:22:23;13.93;;;9.03;;
9324;SDS011;4701;51.566;6.776;2022-12-18T13:24:30;14.60;;;9.77;;
9324;SDS011;4701;51.566;6.776;2022-12-18T13:26:33;15.40;;;10.10;;
9324;SDS011;4701;51.566;6.776;2022-12-18T13:28:49;13.13;;;8.67;;
9324;SDS011;4701;51.566;6.776;2022-12-18T13:30:53;15.40;;;7.97;;
9324;SDS011;4701;51.566;6.776;2022-12-18T13:33:05;12.23;;;7.70;;
9324;SDS011;4701;51.566;6.776;2022-12-18T13:35:41;14.27;;;8.07;;
9324;SDS011;4701;51.566;6.776;2022-12-18T13:37:53;12.40;;;7.67;;
9324;SDS011;4701;51.566;6.776;2022-12-18T13:39:56;10.53;;;7.53;;
9324;SDS011;4701;51.566;6.776;2022-12-18T13:44:56;10.67;;;7.17;;
9324;SDS011;4701;51.566;6.776;2022-12-18T13:46:59;12.37;;;7.97;;
9324;SDS011;4701;51.566;6.776;2022-12-18T13:49:03;12.37;;;7.73;;
9324;SDS011;4701;51.566;6.776;2022-12-18T13:51:21;12.87;;;7.20;;
9324;SDS011;4701;51.566;6.776;2022-12-18T13:53:25;11.87;;;7.70;;
9324;SDS011;4701;51.566;6.776;2022-12-18T13:55:30;10.77;;;7.47;;
9324;SDS011;4701;51.566;6.776;2022-12-18T13:57:34;10.23;;;7.27;;
9324;SDS011;4701;51.566;6.776;2022-12-18T13:59:38;12.40;;;7.43;;
9324;SDS011;4701;51.566;6.776;2022-12-18T14:01:44;10.73;;;7.47;;
9324;SDS011;4701;51.566;6.776;2022-12-18T14:03:48;11.00;;;7.10;;
9324;SDS011;4701;51.566;6.776;2022-12-18T14:06:01;11.70;;;7.57;;
9324;SDS011;4701;51.566;6.776;2022-12-18T14:08:10;12.43;;;7.80;;
9324;SDS011;4701;51.566;6.776;2022-12-18T14:10:15;12.53;;;8.07;;
9324;SDS011;4701;51.566;6.776;2022-12-18T14:12:18;13.43;;;8.60;;
9324;SDS011;4701;51.566;6.776;2022-12-18T14:14:40;15.20;;;8.47;;
9324;SDS011;4701;51.566;6.776;2022-12-18T14:16:48;13.87;;;7.80;;
9324;SDS011;4701;51.566;6.776;2022-12-18T14:18:51;11.90;;;8.10;;
9324;SDS011;4701;51.566;6.776;2022-12-18T14:20:55;13.17;;;8.30;;
9324;SDS011;4701;51.566;6.776;2022-12-18T14:22:59;16.93;;;9.03;;
9324;SDS011;4701;51.566;6.776;2022-12-18T14:25:10;18.70;;;10.83;;
9324;SDS011;4701;51.566;6.776;2022-12-18T14:27:21;14.83;;;9.83;;
9324;SDS011;4701;51.566;6.776;2022-12-18T14:29:24;13.43;;;9.20;;
9324;SDS011;4701;51.566;6.776;2022-12-18T14:31:31;13.97;;;10.00;;
9324;SDS011;4701;51.566;6.776;2022-12-18T14:33:32;14.07;;;8.73;;
9324;SDS011;4701;51.566;6.776;2022-12-18T14:35:35;14.13;;;9.17;;
9324;SDS011;4701;51.566;6.776;2022-12-18T14:37:37;14.07;;;9.63;;
9324;SDS011;4701;51.566;6.776;2022-12-18T14:39:39;13.70;;;9.20;;
9324;SDS011;4701;51.566;6.776;2022-12-18T14:41:43;13.47;;;9.07;;
9324;SDS011;4701;51.566;6.776;2022-12-18T14:43:45;14.63;;;8.90;;
9324;SDS011;4701;51.566;6.776;2022-12-18T14:45:48;15.07;;;9.37;;
9324;SDS011;4701;51.566;6.776;2022-12-18T14:47:51;15.77;;;9.23;;
9324;SDS011;4701;51.566;6.776;2022-12-18T14:49:55;13.57;;;9.13;;
9324;SDS011;4701;51.566;6.776;2022-12-18T14:51:57;14.07;;;9.90;;
9324;SDS011;4701;51.566;6.776;2022-12-18T14:54:03;14.53;;;9.33;;
9324;SDS011;4701;51.566;6.776;2022-12-18T14:56:15;16.33;;;10.07;;
9324;SDS011;4701;51.566;6.776;2022-12-18T14:58:20;12.90;;;8.90;;
9324;SDS011;4701;51.566;6.776;2022-12-18T15:00:24;16.30;;;9.93;;
9324;SDS011;4701;51.566;6.776;2022-12-18T15:02:27;16.73;;;9.80;;
9324;SDS011;4701;51.566;6.776;2022-12-18T15:04:30;15.47;;;9.87;;
9324;SDS011;4701;51.566;6.776;2022-12-18T15:06:34;18.50;;;10.77;;
9324;SDS011;4701;51.566;6.776;2022-12-18T15:09:04;18.33;;;10.40;;
9324;SDS011;4701;51.566;6.776;2022-12-18T15:13:48;15.80;;;10.10;;
9324;SDS011;4701;51.566;6.776;2022-12-18T15:15:50;17.33;;;10.40;;
9324;SDS011;4701;51.566;6.776;2022-12-18T15:17:56;15.40;;;10.10;;
9324;SDS011;4701;51.566;6.776;2022-12-18T15:20:02;16.87;;;10.80;;
9324;SDS011;4701;51.566;6.776;2022-12-18T15:22:18;17.33;;;8.73;;
9324;SDS011;4701;51.566;6.776;2022-12-18T15:24:24;17.67;;;10.03;;
9324;SDS011;4701;51.566;6.776;2022-12-18T15:26:31;13.90;;;9.67;;
9324;SDS011;4701;51.566;6.776;2022-12-18T15:28:39;19.03;;;10.63;;
9324;SDS011;4701;51.566;6.776;2022-12-18T15:31:00;21.77;;;13.53;;
9324;SDS011;4701;51.566;6.776;2022-12-18T15:33:16;17.77;;;12.03;;
9324;SDS011;4701;51.566;6.776;2022-12-18T15:35:24;18.47;;;10.73;;
9324;SDS011;4701;51.566;6.776;2022-12-18T15:37:26;20.97;;;12.17;;
9324;SDS011;4701;51.566;6.776;2022-12-18T15:39:28;16.77;;;11.03;;
9324;SDS011;4701;51.566;6.776;2022-12-18T15:41:30;17.17;;;11.67;;
9324;SDS011;4701;51.566;6.776;2022-12-18T15:43:33;15.93;;;10.97;;
9324;SDS011;4701;51.566;6.776;2022-12-18T15:45:38;16.67;;;10.30;;
9324;SDS011;4701;51.566;6.776;2022-12-18T15:47:41;16.13;;;9.93;;
9324;SDS011;4701;51.566;6.776;2022-12-18T15:49:43;20.30;;;10.83;;
9324;SDS011;4701;51.566;6.776;2022-12-18T15:51:45;20.43;;;10.13;;
9324;SDS011;4701;51.566;6.776;2022-12-18T15:53:51;16.67;;;11.27;;
9324;SDS011;4701;51.566;6.776;2022-12-18T15:55:55;15.90;;;10.43;;
9324;SDS011;4701;51.566;6.776;2022-12-18T15:58:14;16.83;;;10.33;;
9324;SDS011;4701;51.566;6.776;2022-12-18T16:00:16;15.70;;;10.93;;
9324;SDS011;4701;51.566;6.776;2022-12-18T16:02:19;17.10;;;11.40;;
9324;SDS011;4701;51.566;6.776;2022-12-18T16:04:24;15.80;;;10.33;;
9324;SDS011;4701;51.566;6.776;2022-12-18T16:06:25;16.43;;;10.57;;
9324;SDS011;4701;51.566;6.776;2022-12-18T16:08:27;18.37;;;10.70;;
9324;SDS011;4701;51.566;6.776;2022-12-18T16:10:30;15.60;;;9.87;;
9324;SDS011;4701;51.566;6.776;2022-12-18T16:12:31;18.90;;;11.30;;
9324;SDS011;4701;51.566;6.776;2022-12-18T16:14:33;17.60;;;10.63;;
9324;SDS011;4701;51.566;6.776;2022-12-18T16:16:35;20.07;;;12.07;;
9324;SDS011;4701;51.566;6.776;2022-12-18T16:18:37;15.33;;;10.13;;
9324;SDS011;4701;51.566;6.776;2022-12-18T16:20:40;18.47;;;10.93;;
9324;SDS011;4701;51.566;6.776;2022-12-18T16:22:42;18.63;;;12.30;;
9324;SDS011;4701;51.566;6.776;2022-12-18T16:24:46;17.20;;;11.00;;
9324;SDS011;4701;51.566;6.776;2022-12-18T16:26:48;17.33;;;10.90;;
9324;SDS011;4701;51.566;6.776;2022-12-18T16:28:51;18.13;;;11.10;;
9324;SDS011;4701;51.566;6.776;2022-12-18T16:30:53;18.93;;;12.13;;
9324;SDS011;4701;51.566;6.776;2022-12-18T16:32:55;18.90;;;12.00;;
9324;SDS011;4701;51.566;6.776;2022-12-18T16:34:59;18.13;;;11.80;;
9324;SDS011;4701;51.566;6.776;2022-12-18T16:37:03;17.90;;;11.90;;
9324;SDS011;4701;51.566;6.776;2022-12-18T16:39:06;17.13;;;11.83;;
9324;SDS011;4701;51.566;6.776;2022-12-18T16:41:15;20.37;;;12.20;;
9324;SDS011;4701;51.566;6.776;2022-12-18T16:43:31;19.53;;;11.67;;
9324;SDS011;4701;51.566;6.776;2022-12-18T16:45:33;18.13;;;12.13;;
9324;SDS011;4701;51.566;6.776;2022-12-18T16:47:35;19.83;;;12.67;;
9324;SDS011;4701;51.566;6.776;2022-12-18T16:49:37;22.33;;;12.47;;
9324;SDS011;4701;51.566;6.776;2022-12-18T16:51:39;21.20;;;12.27;;
9324;SDS011;4701;51.566;6.776;2022-12-18T16:53:42;21.33;;;12.80;;
9324;SDS011;4701;51.566;6.776;2022-12-18T16:55:44;19.70;;;12.50;;
9324;SDS011;4701;51.566;6.776;2022-12-18T16:57:45;20.90;;;12.77;;
9324;SDS011;4701;51.566;6.776;2022-12-18T16:59:47;19.00;;;12.53;;
9324;SDS011;4701;51.566;6.776;2022-12-18T17:01:49;20.63;;;12.97;;
9324;SDS011;4701;51.566;6.776;2022-12-18T17:03:52;21.70;;;12.67;;
9324;SDS011;4701;51.566;6.776;2022-12-18T17:05:54;17.53;;;12.53;;
9324;SDS011;4701;51.566;6.776;2022-12-18T17:07:56;20.50;;;12.83;;
9324;SDS011;4701;51.566;6.776;2022-12-18T17:09:59;20.17;;;14.13;;
9324;SDS011;4701;51.566;6.776;2022-12-18T17:12:01;23.43;;;13.50;;
9324;SDS011;4701;51.566;6.776;2022-12-18T17:14:07;21.23;;;12.80;;
9324;SDS011;4701;51.566;6.776;2022-12-18T17:16:10;18.77;;;12.63;;
9324;SDS011;4701;51.566;6.776;2022-12-18T17:18:12;21.00;;;13.23;;
9324;SDS011;4701;51.566;6.776;2022-12-18T17:20:14;19.30;;;13.27;;
9324;SDS011;4701;51.566;6.776;2022-12-18T17:22:16;18.70;;;12.83;;
9324;SDS011;4701;51.566;6.776;2022-12-18T17:24:18;24.87;;;13.93;;
9324;SDS011;4701;51.566;6.776;2022-12-18T17:26:22;21.97;;;13.63;;
9324;SDS011;4701;51.566;6.776;2022-12-18T17:28:24;24.20;;;13.50;;
9324;SDS011;4701;51.566;6.776;2022-12-18T17:30:26;20.87;;;12.90;;
9324;SDS011;4701;51.566;6.776;2022-12-18T17:32:27;21.60;;;14.53;;
9324;SDS011;4701;51.566;6.776;2022-12-18T17:34:29;24.37;;;15.80;;
9324;SDS011;4701;51.566;6.776;2022-12-18T17:36:31;23.47;;;16.43;;
9324;SDS011;4701;51.566;6.776;2022-12-18T17:38:33;24.63;;;15.83;;
9324;SDS011;4701;51.566;6.776;2022-12-18T17:40:35;21.97;;;14.73;;
9324;SDS011;4701;51.566;6.776;2022-12-18T17:42:38;24.97;;;15.97;;
9324;SDS011;4701;51.566;6.776;2022-12-18T17:44:40;27.37;;;17.77;;
9324;SDS011;4701;51.566;6.776;2022-12-18T17:46:42;27.43;;;15.33;;
9324;SDS011;4701;51.566;6.776;2022-12-18T17:48:45;22.07;;;14.10;;
9324;SDS011;4701;51.566;6.776;2022-12-18T17:50:46;25.60;;;15.13;;
9324;SDS011;4701;51.566;6.776;2022-12-18T17:52:48;26.63;;;15.47;;
9324;SDS011;4701;51.566;6.776;2022-12-18T17:54:50;24.27;;;15.70;;
9324;SDS011;4701;51.566;6.776;2022-12-18T17:56:52;24.00;;;15.30;;
9324;SDS011;4701;51.566;6.776;2022-12-18T17:58:55;24.37;;;15.20;;
9324;SDS011;4701;51.566;6.776;2022-12-18T18:00:57;23.47;;;14.43;;
9324;SDS011;4701;51.566;6.776;2022-12-18T18:03:00;27.47;;;15.73;;
9324;SDS011;4701;51.566;6.776;2022-12-18T18:05:01;24.80;;;15.93;;
9324;SDS011;4701;51.566;6.776;2022-12-18T18:07:03;24.40;;;16.13;;
9324;SDS011;4701;51.566;6.776;2022-12-18T18:09:05;26.07;;;15.90;;
9324;SDS011;4701;51.566;6.776;2022-12-18T18:11:08;24.67;;;15.03;;
9324;SDS011;4701;51.566;6.776;2022-12-18T18:13:29;25.10;;;14.73;;
9324;SDS011;4701;51.566;6.776;2022-12-18T18:15:55;23.77;;;14.93;;
9324;SDS011;4701;51.566;6.776;2022-12-18T18:17:57;22.33;;;14.47;;
9324;SDS011;4701;51.566;6.776;2022-12-18T18:20:00;26.60;;;15.00;;
9324;SDS011;4701;51.566;6.776;2022-12-18T18:22:02;26.47;;;16.37;;
9324;SDS011;4701;51.566;6.776;2022-12-18T18:24:04;25.10;;;16.13;;
9324;SDS011;4701;51.566;6.776;2022-12-18T18:26:07;25.40;;;15.77;;
9324;SDS011;4701;51.566;6.776;2022-12-18T18:28:09;24.73;;;16.43;;
9324;SDS011;4701;51.566;6.776;2022-12-18T18:30:11;24.57;;;15.63;;
9324;SDS011;4701;51.566;6.776;2022-12-18T18:32:15;24.77;;;16.67;;
9324;SDS011;4701;51.566;6.776;2022-12-18T18:34:19;24.00;;;16.10;;
9324;SDS011;4701;51.566;6.776;2022-12-18T18:36:22;30.93;;;17.30;;
9324;SDS011;4701;51.566;6.776;2022-12-18T18:38:24;27.17;;;16.27;;
9324;SDS011;4701;51.566;6.776;2022-12-18T18:40:26;29.40;;;17.30;;
9324;SDS011;4701;51.566;6.776;2022-12-18T18:42:28;27.17;;;15.87;;
9324;SDS011;4701;51.566;6.776;2022-12-18T18:44:30;27.23;;;17.27;;